Time Latitude Longitude Accuracy (66% radius in meters) Altitude (meters) Speed (km/hour) Bearing (degrees) Battery (%) GPS flag
07:09:04 54.460624 53.537149 10 246 1.1699999570847 113.80000305176 94 0 delete
07:08:53 54.460624 53.537149 10 246 1.1699999570847 113.80000305176 94 0 delete
07:08:42 54.460624 53.537149 10 246 1.1699999570847 113.80000305176 94 0 delete
07:08:31 54.460624 53.537149 10 246 1.1699999570847 113.80000305176 94 0 delete
07:08:20 54.460624 53.537149 10 246 1.1699999570847 113.80000305176 94 0 delete
06:08:02 54.460624 53.537149 10 246 1.1699999570847 113.80000305176 94 1 delete
06:07:51 54.460660 53.536996 9 246 1.1599999666214 102.30000305176 94 1 delete
06:07:40 54.460699 53.536843 9 244 1.3700000047684 112 94 1 delete
06:07:31 54.460748 53.536695 7 243 1.3799999952316 131 94 1 delete
06:07:22 54.460821 53.536578 7 243 1.2400000095367 125.80000305176 94 1 delete
06:07:13 54.460871 53.536445 7 243 1.2599999904633 106.5 94 1 delete
06:07:03 54.460881 53.536286 8 241 1.1100000143051 89.099998474121 94 1 delete
06:06:50 54.460902 53.536127 7 241 1.0099999904633 93.199996948242 94 1 delete
06:06:39 54.460905 53.535966 6 240 1.1299999952316 96.900001525879 94 1 delete
06:06:29 54.460921 53.535802 8 240 1.1799999475479 101.30000305176 94 1 delete
06:06:23 54.460926 53.535637 8 240 1.7799999713898 95 94 1 delete
06:06:16 54.460935 53.535467 9 240 1.8499999046326 83.300003051758 94 1 delete
06:06:01 54.460911 53.535132 7 239 1.3500000238419 91.300003051758 94 1 delete
06:05:52 54.460923 53.534977 6 238 1.0799999237061 118.59999847412 94 1 delete
06:05:43 54.460995 53.534864 6 238 1.6799999475479 151.5 94 1 delete
06:05:36 54.461090 53.534806 7 237 1.6399999856949 161.39999389648 94 1 delete
06:05:30 54.461185 53.534766 6 238 1.789999961853 166.39999389648 94 1 delete
06:05:24 54.461275 53.534707 8 239 1.4699999094009 171 94 1 delete
06:05:17 54.461369 53.534651 8 239 1.5899999141693 154.5 94 1 delete
06:05:10 54.461433 53.534532 9 240 1.4499999284744 103.90000152588 94 1 delete
06:05:02 54.461419 53.534364 10 241 1.5299999713898 71 94 1 delete
06:04:55 54.461381 53.534205 9 243 1.1699999570847 83.699996948242 94 1 delete
06:04:47 54.461347 53.534046 10 243 1.1999999284744 82.699996948242 94 1 delete
06:04:38 54.461323 53.533881 10 244 1 72.400001525879 94 1 delete
06:04:28 54.461271 53.533740 8 244 0.81999999284744 79.800003051758 94 1 delete
06:04:16 54.461232 53.533587 9 243 1.0900000333786 58.200000762939 94 1 delete
06:04:07 54.461179 53.533448 8 242 1.1200000047684 59.5 94 1 delete
06:03:57 54.461122 53.533311 8 241 1.1100000143051 50.5 94 1 delete
06:03:50 54.461055 53.533192 8 241 1.5099999904633 47.200000762939 94 1 delete
06:03:44 54.460983 53.533068 9 240 1.4399999380112 42.400001525879 94 1 delete
06:03:37 54.460906 53.532963 9 240 1.3500000238419 34.400001525879 94 1 delete
06:03:29 54.460820 53.532871 9 239 1.3799999952316 35.900001525879 94 1 delete
06:03:23 54.460746 53.532774 8 239 1.25 33.900001525879 94 1 delete
06:03:17 54.460664 53.532678 9 239 1.4599999189377 34.900001525879 94 1 delete
06:03:11 54.460587 53.532590 10 240 1.3099999427795 34.700000762939 94 1 delete
06:03:04 54.460514 53.532477 10 240 1.4299999475479 55 94 1 delete
06:02:37 54.460445 53.531848 11 242 1.6599999666214 116.80000305176 94 1 delete
07:02:38 54.460494 53.531533 11 241 1.5299999713898 117 94 0 delete
06:02:25 54.460494 53.531533 11 241 1.5299999713898 117 94 1 delete
07:02:15 54.460631 53.531085 10 240 1.6799999475479 139.30000305176 94 0 delete
06:02:04 54.460631 53.531085 10 240 1.6799999475479 139.30000305176 94 1 delete
06:01:58 54.460704 53.530974 10 240 1.7699999809265 116.19999694824 94 1 delete
06:01:52 54.460737 53.530810 9 240 1.2699999809265 122.40000152588 94 1 delete
06:01:44 54.460799 53.530688 8 240 1.7799999713898 116.69999694824 94 1 delete
06:01:38 54.460839 53.530539 9 240 1.8799999952316 99.699996948242 94 1 delete